createdAt,value
2018-12-20T00:00:53.664Z,96.84
2018-12-20T00:03:22.275Z,96.99
2018-12-20T00:05:50.918Z,97.24
2018-12-20T00:08:19.424Z,97.36
2018-12-20T00:10:48.143Z,97.22
2018-12-20T00:13:16.771Z,97.06
2018-12-20T00:15:45.436Z,97.06
2018-12-20T00:18:14.415Z,97.88
2018-12-20T00:20:43.089Z,97.85
2018-12-20T00:23:11.809Z,98.06
2018-12-20T00:25:40.556Z,97.81
2018-12-20T00:28:09.175Z,97.47
2018-12-20T00:30:37.753Z,97.96
2018-12-20T00:33:06.314Z,97.77
2018-12-20T00:35:34.963Z,97.54
2018-12-20T00:38:03.668Z,97.75
2018-12-20T00:40:32.258Z,98.18
2018-12-20T00:43:00.890Z,97.93
2018-12-20T00:45:29.463Z,97.59
2018-12-20T00:47:58.144Z,98.00
2018-12-20T00:50:26.711Z,98.29
2018-12-20T00:52:55.538Z,98.28
2018-12-20T00:55:24.126Z,98.36
2018-12-20T00:57:53.745Z,99.19
2018-12-20T01:00:22.439Z,98.82
2018-12-20T01:02:55.271Z,98.66
2018-12-20T01:05:21.743Z,98.85
2018-12-20T01:07:50.553Z,98.19
2018-12-20T01:10:19.199Z,99.06
2018-12-20T01:12:47.805Z,99.02
2018-12-20T01:15:16.399Z,99.01
2018-12-20T01:17:44.915Z,99.01
2018-12-20T01:20:13.436Z,99.37
2018-12-20T01:22:41.999Z,99.83
2018-12-20T01:25:10.566Z,99.73
2018-12-20T01:27:39.131Z,99.77
2018-12-20T01:30:11.957Z,100.00
2018-12-20T01:32:40.747Z,99.92
2018-12-20T01:35:09.518Z,99.67
2018-12-20T01:37:38.209Z,100.00
2018-12-20T01:40:07.185Z,99.46
2018-12-20T01:42:35.794Z,100.00
2018-12-20T01:45:04.663Z,99.48
2018-12-20T01:47:33.337Z,100.00
2018-12-20T01:50:01.952Z,100.00
2018-12-20T01:52:30.701Z,100.00
2018-12-20T01:54:59.437Z,100.00
2018-12-20T01:57:28.137Z,100.00
2018-12-20T01:59:56.843Z,100.00
2018-12-20T02:02:25.453Z,100.00
2018-12-20T02:04:54.027Z,100.00
2018-12-20T02:07:22.674Z,100.00
2018-12-20T02:09:51.570Z,100.00
2018-12-20T02:12:20.422Z,100.00
2018-12-20T02:14:52.125Z,100.00
2018-12-20T02:17:20.873Z,100.00
2018-12-20T02:20:04.773Z,100.00
2018-12-20T02:22:33.662Z,100.00
2018-12-20T02:25:02.278Z,100.00
2018-12-20T02:27:30.895Z,100.00
2018-12-20T02:29:59.607Z,100.00
2018-12-20T02:32:28.316Z,100.00
2018-12-20T02:34:57.215Z,99.42
2018-12-20T02:37:25.896Z,100.00
2018-12-20T02:39:54.536Z,100.00
2018-12-20T02:42:23.206Z,100.00
2018-12-20T02:44:51.861Z,100.00
2018-12-20T02:47:22.544Z,100.00
2018-12-20T02:49:51.298Z,100.00
2018-12-20T02:52:19.961Z,100.00
2018-12-20T02:54:48.567Z,100.00
2018-12-20T02:57:17.143Z,99.96
2018-12-20T02:59:45.777Z,100.00
2018-12-20T03:02:14.645Z,100.00
2018-12-20T03:04:43.273Z,99.61
2018-12-20T03:07:12.164Z,99.71
2018-12-20T03:09:40.832Z,100.00
2018-12-20T03:12:09.434Z,99.93
2018-12-20T03:14:37.977Z,100.00
2018-12-20T03:17:06.662Z,99.83
2018-12-20T03:19:35.282Z,100.00
2018-12-20T03:22:04.255Z,99.86
2018-12-20T03:24:33.306Z,100.00
2018-12-20T03:27:01.993Z,100.00
2018-12-20T03:29:30.598Z,99.37
2018-12-20T03:31:59.196Z,100.00
2018-12-20T03:34:27.889Z,99.47
2018-12-20T03:36:56.512Z,100.00
2018-12-20T03:39:25.206Z,100.00
2018-12-20T03:41:54.047Z,100.00
2018-12-20T03:44:22.813Z,100.00
2018-12-20T03:46:51.431Z,100.00
2018-12-20T03:49:20.211Z,100.00
2018-12-20T03:51:48.968Z,100.00
2018-12-20T03:54:17.726Z,100.00
2018-12-20T03:56:46.491Z,100.00
2018-12-20T03:59:15.125Z,100.00
2018-12-20T04:01:43.705Z,100.00
2018-12-20T04:04:12.284Z,100.00
2018-12-20T04:06:40.874Z,100.00
2018-12-20T04:09:09.531Z,100.00
2018-12-20T04:11:38.367Z,100.00
2018-12-20T04:14:07.065Z,100.00
2018-12-20T04:16:35.992Z,100.00
2018-12-20T04:19:04.834Z,100.00
2018-12-20T04:21:33.737Z,100.00
2018-12-20T04:24:02.698Z,100.00
2018-12-20T04:26:31.685Z,100.00
2018-12-20T04:29:00.450Z,100.00
2018-12-20T04:31:29.360Z,100.00
2018-12-20T04:33:58.227Z,100.00
2018-12-20T04:36:26.887Z,100.00
2018-12-20T04:38:55.843Z,100.00
2018-12-20T04:41:24.848Z,100.00
2018-12-20T04:43:53.544Z,100.00
2018-12-20T04:46:22.135Z,100.00
2018-12-20T04:48:51.203Z,100.00
2018-12-20T04:51:19.881Z,100.00
2018-12-20T04:53:48.563Z,100.00
2018-12-20T04:56:17.322Z,100.00
2018-12-20T04:58:45.992Z,100.00
2018-12-20T05:01:14.565Z,100.00
2018-12-20T05:03:43.496Z,100.00
2018-12-20T05:06:12.383Z,100.00
2018-12-20T05:08:41.232Z,100.00
2018-12-20T05:11:09.808Z,100.00
2018-12-20T05:13:38.404Z,100.00
2018-12-20T05:16:07.187Z,100.00
2018-12-20T05:18:36.261Z,100.00
2018-12-20T05:21:04.833Z,100.00
2018-12-20T05:23:33.423Z,100.00
2018-12-20T05:26:02.084Z,100.00
2018-12-20T05:28:30.758Z,100.00
2018-12-20T05:30:59.477Z,100.00
2018-12-20T05:33:28.137Z,100.00
2018-12-20T05:35:56.877Z,100.00
2018-12-20T05:38:25.501Z,100.00
2018-12-20T05:40:54.164Z,100.00
2018-12-20T05:43:22.744Z,100.00
2018-12-20T05:45:51.395Z,100.00
2018-12-20T05:48:20.063Z,100.00
2018-12-20T05:50:48.680Z,100.00
2018-12-20T05:53:17.342Z,100.00
2018-12-20T05:55:46.996Z,100.00
2018-12-20T05:58:15.651Z,100.00
2018-12-20T06:00:44.371Z,100.00
2018-12-20T06:03:13.989Z,100.00
2018-12-20T06:05:42.603Z,100.00
2018-12-20T06:08:11.471Z,100.00
2018-12-20T06:10:40.256Z,100.00
2018-12-20T06:13:09.080Z,100.00
2018-12-20T06:15:37.754Z,100.00
2018-12-20T06:18:06.356Z,100.00
2018-12-20T06:20:34.937Z,100.00
2018-12-20T06:23:03.722Z,100.00
2018-12-20T06:25:32.268Z,100.00
2018-12-20T06:28:00.809Z,100.00
2018-12-20T06:30:29.528Z,100.00
2018-12-20T06:32:58.064Z,100.00
2018-12-20T06:35:26.729Z,100.00
2018-12-20T06:37:55.737Z,100.00
2018-12-20T06:40:24.349Z,100.00
2018-12-20T06:42:53.018Z,100.00
2018-12-20T06:45:21.540Z,100.00
2018-12-20T06:47:50.103Z,100.00
2018-12-20T06:50:18.649Z,100.00
2018-12-20T06:52:47.120Z,100.00
2018-12-20T06:55:15.689Z,100.00
2018-12-20T06:57:44.342Z,100.00
2018-12-20T07:00:12.972Z,100.00
2018-12-20T07:02:41.535Z,100.00
2018-12-20T07:05:10.016Z,100.00
2018-12-20T07:07:38.578Z,100.00
2018-12-20T07:10:07.884Z,100.00
2018-12-20T07:12:36.456Z,100.00
2018-12-20T07:15:05.833Z,100.00
2018-12-20T07:17:34.452Z,100.00
2018-12-20T07:20:03.060Z,100.00
2018-12-20T07:22:31.603Z,100.00
2018-12-20T07:25:00.502Z,100.00
2018-12-20T07:27:29.005Z,100.00
2018-12-20T07:29:57.537Z,100.00
2018-12-20T07:32:26.054Z,100.00
2018-12-20T07:34:54.760Z,100.00
2018-12-20T07:37:24.324Z,100.00
2018-12-20T07:39:53.043Z,100.00
2018-12-20T07:42:21.609Z,100.00
2018-12-20T07:44:50.171Z,100.00
2018-12-20T07:47:18.684Z,99.91
2018-12-20T07:49:47.305Z,99.73
2018-12-20T07:52:15.821Z,99.66
2018-12-20T07:54:44.367Z,100.00
2018-12-20T07:57:12.910Z,99.86
2018-12-20T07:59:41.557Z,98.71
2018-12-20T08:02:10.248Z,98.72
2018-12-20T08:04:38.808Z,98.92
2018-12-20T08:07:07.353Z,99.33
2018-12-20T08:09:36.005Z,98.82
2018-12-20T08:12:04.574Z,99.13
2018-12-20T08:14:33.169Z,98.12
2018-12-20T08:17:01.804Z,97.84
2018-12-20T08:19:36.259Z,98.14
2018-12-20T08:22:02.299Z,97.13
2018-12-20T08:24:31.103Z,97.41
2018-12-20T08:27:00.580Z,97.03
2018-12-20T08:29:29.126Z,96.35
2018-12-20T08:31:57.692Z,96.45
2018-12-20T08:34:26.275Z,96.03
2018-12-20T08:36:54.866Z,95.94
2018-12-20T08:39:23.479Z,95.54
2018-12-20T08:41:52.089Z,95.73
2018-12-20T08:44:20.730Z,95.10
2018-12-20T08:46:54.357Z,94.55
2018-12-20T08:49:19.905Z,94.32
2018-12-20T08:51:49.165Z,94.10
2018-12-20T08:54:18.030Z,93.82
2018-12-20T08:56:46.549Z,93.57
2018-12-20T08:59:15.255Z,93.17
2018-12-20T09:01:43.847Z,93.02
2018-12-20T09:04:12.384Z,93.13
2018-12-20T09:06:40.933Z,92.81
2018-12-20T09:09:09.491Z,93.13
2018-12-20T09:11:38.028Z,92.24
2018-12-20T09:14:06.566Z,92.22
2018-12-20T09:16:35.196Z,92.08
2018-12-20T09:19:03.921Z,91.76
2018-12-20T09:21:32.552Z,92.48
2018-12-20T09:24:01.113Z,91.88
2018-12-20T09:26:29.701Z,92.20
2018-12-20T09:28:58.270Z,91.39
2018-12-20T09:31:26.874Z,92.06
2018-12-20T09:33:55.457Z,92.08
2018-12-20T09:36:23.989Z,92.41
2018-12-20T09:38:52.539Z,93.37
2018-12-20T09:41:21.143Z,93.84
2018-12-20T09:43:49.681Z,92.47
2018-12-20T09:46:18.219Z,92.18
2018-12-20T09:48:46.750Z,91.03
2018-12-20T09:51:15.306Z,91.03
2018-12-20T09:53:43.905Z,91.11
2018-12-20T09:56:12.517Z,91.46
2018-12-20T09:58:41.102Z,91.25
2018-12-20T10:01:09.768Z,91.12
2018-12-20T10:03:38.376Z,90.46
2018-12-20T10:06:06.973Z,90.40
2018-12-20T10:08:35.591Z,90.21
2018-12-20T10:11:04.259Z,90.08
2018-12-20T10:13:32.835Z,89.27
2018-12-20T10:16:01.387Z,89.63
2018-12-20T10:18:29.985Z,90.07
2018-12-20T10:20:58.542Z,90.63
2018-12-20T10:23:27.188Z,90.42
2018-12-20T10:25:55.763Z,90.69
2018-12-20T10:28:24.702Z,88.69
2018-12-20T10:30:53.218Z,88.42
2018-12-20T10:33:21.749Z,87.34
2018-12-20T10:35:50.316Z,88.31
2018-12-20T10:38:18.857Z,87.56
2018-12-20T10:40:47.382Z,87.45
2018-12-20T10:43:16.064Z,86.93
2018-12-20T10:45:44.559Z,86.88
2018-12-20T10:48:13.200Z,87.26
2018-12-20T10:50:41.805Z,87.61
2018-12-20T10:53:10.362Z,87.77
2018-12-20T10:55:38.916Z,87.80
2018-12-20T10:58:07.520Z,86.76
2018-12-20T11:00:41.421Z,86.94
2018-12-20T11:03:15.470Z,86.45
2018-12-20T11:05:49.205Z,85.99
2018-12-20T11:08:23.905Z,86.46
2018-12-20T11:10:56.686Z,84.29
2018-12-20T11:13:25.349Z,85.72
2018-12-20T11:15:54.069Z,86.72
2018-12-20T11:18:22.738Z,87.20
2018-12-20T11:20:51.377Z,87.43
2018-12-20T11:23:19.945Z,87.32
2018-12-20T11:25:48.488Z,87.81
2018-12-20T11:28:17.072Z,87.26
2018-12-20T11:30:45.580Z,87.30
2018-12-20T11:33:14.155Z,87.04
2018-12-20T11:35:42.745Z,86.21
2018-12-20T11:38:11.356Z,86.97
2018-12-20T11:40:39.842Z,88.24
2018-12-20T11:43:08.446Z,88.19
2018-12-20T11:45:36.977Z,87.26
2018-12-20T11:48:05.522Z,87.90
2018-12-20T11:50:34.045Z,87.84
2018-12-20T11:53:02.788Z,87.87
2018-12-20T11:55:31.346Z,88.70
2018-12-20T11:57:59.902Z,88.71
2018-12-20T12:00:28.515Z,88.45
2018-12-20T12:02:57.069Z,88.22
2018-12-20T12:05:25.636Z,88.56
2018-12-20T12:07:54.203Z,88.46
2018-12-20T12:10:22.951Z,88.00
2018-12-20T12:12:51.488Z,88.18
2018-12-20T12:15:20.045Z,88.20
2018-12-20T12:17:54.233Z,88.76
2018-12-20T12:20:19.150Z,90.46
2018-12-20T12:22:47.755Z,89.68
2018-12-20T12:25:16.320Z,89.31
2018-12-20T12:27:44.882Z,88.97
2018-12-20T12:30:13.770Z,89.92
2018-12-20T12:32:42.291Z,89.28
2018-12-20T12:35:10.905Z,88.81
2018-12-20T12:37:39.486Z,89.09
2018-12-20T12:40:08.654Z,89.02
2018-12-20T12:42:37.212Z,88.76
2018-12-20T12:45:06.315Z,89.21
2018-12-20T12:47:40.078Z,89.50
2018-12-20T12:50:08.640Z,89.93
2018-12-20T12:52:37.211Z,90.53
2018-12-20T12:55:05.925Z,90.31
2018-12-20T12:57:34.451Z,90.33
2018-12-20T13:00:03.616Z,90.54
2018-12-20T13:02:32.197Z,91.17
2018-12-20T13:05:00.785Z,91.02
2018-12-20T13:07:29.354Z,91.51
2018-12-20T13:09:57.903Z,90.84
2018-12-20T13:12:26.484Z,91.40
2018-12-20T13:14:55.051Z,91.30
2018-12-20T13:17:23.718Z,91.14
2018-12-20T13:19:52.414Z,91.20
2018-12-20T13:22:20.958Z,91.65
2018-12-20T13:24:49.577Z,92.05
2018-12-20T13:27:18.100Z,92.52
2018-12-20T13:29:46.657Z,92.92
2018-12-20T13:32:15.248Z,92.39
2018-12-20T13:34:43.788Z,92.68
2018-12-20T13:37:16.035Z,93.11
2018-12-20T13:39:43.060Z,93.26
2018-12-20T13:42:11.611Z,93.68
2018-12-20T13:44:40.239Z,93.34
2018-12-20T13:47:08.836Z,93.99
2018-12-20T13:49:37.385Z,94.87
2018-12-20T13:52:06.206Z,95.41
2018-12-20T13:54:34.747Z,95.60
2018-12-20T13:57:03.311Z,95.62
2018-12-20T13:59:31.909Z,95.89
2018-12-20T14:02:00.467Z,96.05
2018-12-20T14:04:29.020Z,95.43
2018-12-20T14:06:57.565Z,97.02
2018-12-20T14:09:26.133Z,97.56
2018-12-20T14:11:54.705Z,97.34
2018-12-20T14:14:23.420Z,98.47
2018-12-20T14:16:51.988Z,98.26
2018-12-20T14:19:20.537Z,98.08
2018-12-20T14:21:49.027Z,98.35
2018-12-20T14:24:17.633Z,98.35
2018-12-20T14:26:46.255Z,98.04
2018-12-20T14:29:14.833Z,99.09
2018-12-20T14:31:43.458Z,98.90
2018-12-20T14:34:12.054Z,99.44
2018-12-20T14:36:40.732Z,99.10
2018-12-20T14:39:09.294Z,99.94
2018-12-20T14:41:37.858Z,100.00
2018-12-20T14:44:06.428Z,100.00
2018-12-20T14:46:34.972Z,100.00
2018-12-20T14:49:03.558Z,100.00
2018-12-20T14:51:32.103Z,100.00
2018-12-20T14:54:00.714Z,100.00
2018-12-20T14:56:29.323Z,100.00
2018-12-20T14:58:57.876Z,100.00
2018-12-20T15:01:26.444Z,100.00
2018-12-20T15:03:55.012Z,100.00
2018-12-20T15:06:23.557Z,100.00
2018-12-20T15:08:52.144Z,100.00
2018-12-20T15:11:20.686Z,100.00
2018-12-20T15:13:49.249Z,100.00
2018-12-20T15:16:17.801Z,100.00
2018-12-20T15:18:47.836Z,100.00
2018-12-20T15:21:16.867Z,100.00
2018-12-20T15:23:45.468Z,100.00
2018-12-20T15:26:14.060Z,100.00
2018-12-20T15:28:42.641Z,100.00
2018-12-20T15:31:11.257Z,100.00
2018-12-20T15:33:39.832Z,100.00
2018-12-20T15:36:08.383Z,100.00
2018-12-20T15:38:37.914Z,100.00
2018-12-20T15:41:06.474Z,100.00
2018-12-20T15:43:35.086Z,100.00
2018-12-20T15:46:03.700Z,100.00
2018-12-20T15:48:32.401Z,100.00
2018-12-20T15:51:01.041Z,100.00
2018-12-20T15:53:29.685Z,100.00
2018-12-20T15:55:58.281Z,100.00
2018-12-20T15:58:26.837Z,100.00
2018-12-20T16:00:55.548Z,100.00
2018-12-20T16:03:24.274Z,100.00
2018-12-20T16:05:52.854Z,100.00
2018-12-20T16:08:21.398Z,100.00
2018-12-20T16:10:49.999Z,100.00
2018-12-20T16:13:18.574Z,100.00
2018-12-20T16:15:47.140Z,100.00
2018-12-20T16:18:15.725Z,100.00
2018-12-20T16:20:44.311Z,100.00
2018-12-20T16:23:12.873Z,100.00
2018-12-20T16:25:41.469Z,100.00
2018-12-20T16:28:10.051Z,100.00
2018-12-20T16:30:38.699Z,100.00
2018-12-20T16:33:07.283Z,100.00
2018-12-20T16:35:35.867Z,100.00
2018-12-20T16:38:04.476Z,100.00
2018-12-20T16:40:33.019Z,100.00
2018-12-20T16:43:01.601Z,100.00
2018-12-20T16:45:30.113Z,100.00
2018-12-20T16:47:58.717Z,100.00
2018-12-20T16:50:27.257Z,100.00
2018-12-20T16:52:55.937Z,100.00
2018-12-20T16:55:24.464Z,100.00
2018-12-20T16:57:53.048Z,100.00
2018-12-20T17:00:21.812Z,100.00
2018-12-20T17:02:50.376Z,100.00
2018-12-20T17:05:18.930Z,100.00
2018-12-20T17:07:47.494Z,100.00
2018-12-20T17:10:16.063Z,100.00
2018-12-20T17:12:45.228Z,100.00
2018-12-20T17:15:15.991Z,100.00
2018-12-20T17:17:44.695Z,100.00
2018-12-20T17:20:13.309Z,100.00
2018-12-20T17:22:41.797Z,100.00
2018-12-20T17:25:10.384Z,100.00
2018-12-20T17:27:38.966Z,100.00
2018-12-20T17:30:14.780Z,100.00
2018-12-20T17:32:43.356Z,100.00
2018-12-20T17:35:11.907Z,100.00
2018-12-20T17:37:40.872Z,100.00
2018-12-20T17:40:12.450Z,100.00
2018-12-20T17:42:41.031Z,100.00
2018-12-20T17:45:09.767Z,100.00
2018-12-20T17:47:38.529Z,100.00
2018-12-20T17:50:08.087Z,100.00
2018-12-20T17:52:36.784Z,100.00
2018-12-20T17:55:05.618Z,100.00
2018-12-20T17:57:34.181Z,100.00
2018-12-20T18:00:03.131Z,100.00
2018-12-20T18:02:31.659Z,100.00
2018-12-20T18:05:06.947Z,100.00
2018-12-20T18:07:30.900Z,100.00
2018-12-20T18:09:59.467Z,100.00
2018-12-20T18:12:28.114Z,100.00
2018-12-20T18:14:56.737Z,100.00
2018-12-20T18:17:26.027Z,100.00
2018-12-20T18:19:54.606Z,100.00
2018-12-20T18:22:23.155Z,100.00
2018-12-20T18:24:51.668Z,100.00
2018-12-20T18:27:20.216Z,100.00
2018-12-20T18:29:48.809Z,100.00
2018-12-20T18:32:17.326Z,100.00
2018-12-20T18:34:45.906Z,100.00
2018-12-20T18:37:14.729Z,100.00
2018-12-20T18:39:43.288Z,100.00
2018-12-20T18:42:11.817Z,100.00
2018-12-20T18:44:40.423Z,100.00
2018-12-20T18:47:08.961Z,100.00
2018-12-20T18:49:37.513Z,100.00
2018-12-20T18:52:06.186Z,100.00
2018-12-20T18:54:34.742Z,100.00
2018-12-20T18:57:03.636Z,100.00
2018-12-20T18:59:32.182Z,100.00
2018-12-20T19:02:00.741Z,100.00
2018-12-20T19:04:29.336Z,100.00
2018-12-20T19:06:57.917Z,100.00
2018-12-20T19:09:26.582Z,100.00
2018-12-20T19:11:55.414Z,100.00
2018-12-20T19:14:23.952Z,100.00
2018-12-20T19:16:52.505Z,100.00
2018-12-20T19:19:21.080Z,100.00
2018-12-20T19:21:53.408Z,100.00
2018-12-20T19:24:22.112Z,100.00
2018-12-20T19:26:51.459Z,100.00
2018-12-20T19:29:20.043Z,100.00
2018-12-20T19:31:48.601Z,100.00
2018-12-20T19:34:17.268Z,100.00
2018-12-20T19:36:45.928Z,100.00
2018-12-20T19:39:16.426Z,100.00
2018-12-20T19:41:45.041Z,100.00
2018-12-20T19:44:13.586Z,100.00
2018-12-20T19:46:42.161Z,100.00
2018-12-20T19:49:10.726Z,100.00
2018-12-20T19:51:39.310Z,100.00
2018-12-20T19:54:07.893Z,100.00
2018-12-20T19:56:36.491Z,100.00
2018-12-20T19:59:05.060Z,100.00
2018-12-20T20:01:33.609Z,100.00
2018-12-20T20:04:02.173Z,100.00
2018-12-20T20:06:30.773Z,100.00
2018-12-20T20:08:59.313Z,100.00
2018-12-20T20:11:27.869Z,100.00
2018-12-20T20:13:56.423Z,100.00
2018-12-20T20:16:25.003Z,100.00
2018-12-20T20:18:53.525Z,100.00
2018-12-20T20:21:22.093Z,100.00
2018-12-20T20:23:50.711Z,100.00
2018-12-20T20:26:19.278Z,100.00
2018-12-20T20:28:47.798Z,100.00
2018-12-20T20:31:16.397Z,100.00
2018-12-20T20:33:44.965Z,100.00
2018-12-20T20:36:13.557Z,100.00
2018-12-20T20:38:42.114Z,100.00
2018-12-20T20:41:10.627Z,100.00
2018-12-20T20:43:39.235Z,100.00
2018-12-20T20:46:07.762Z,100.00
2018-12-20T20:48:36.335Z,100.00
2018-12-20T20:51:04.985Z,100.00
2018-12-20T20:53:34.597Z,100.00
2018-12-20T20:56:03.272Z,100.00
2018-12-20T20:58:31.833Z,100.00
2018-12-20T21:01:00.355Z,100.00
2018-12-20T21:03:28.975Z,100.00
2018-12-20T21:05:57.607Z,100.00
2018-12-20T21:08:26.122Z,100.00
2018-12-20T21:10:54.688Z,100.00
2018-12-20T21:13:23.220Z,100.00
2018-12-20T21:15:51.825Z,100.00
2018-12-20T21:18:20.360Z,100.00
2018-12-20T21:20:48.978Z,100.00
2018-12-20T21:23:17.575Z,100.00
2018-12-20T21:25:46.181Z,100.00
2018-12-20T21:28:14.878Z,100.00
2018-12-20T21:30:43.454Z,100.00
2018-12-20T21:33:12.119Z,100.00
2018-12-20T21:35:40.705Z,100.00
2018-12-20T21:38:09.230Z,100.00
2018-12-20T21:40:37.881Z,100.00
2018-12-20T21:43:06.456Z,100.00
2018-12-20T21:45:35.133Z,100.00
2018-12-20T21:48:03.770Z,100.00
2018-12-20T21:50:38.975Z,100.00
2018-12-20T21:53:02.875Z,100.00
2018-12-20T21:55:31.448Z,100.00
2018-12-20T21:58:00.013Z,100.00
2018-12-20T22:00:28.574Z,100.00
2018-12-20T22:02:57.192Z,100.00
2018-12-20T22:05:25.791Z,100.00
2018-12-20T22:07:54.374Z,100.00
2018-12-20T22:10:22.916Z,100.00
2018-12-20T22:12:51.494Z,100.00
2018-12-20T22:15:20.047Z,100.00
2018-12-20T22:17:48.717Z,100.00
2018-12-20T22:20:17.303Z,100.00
2018-12-20T22:22:45.812Z,100.00
2018-12-20T22:25:14.398Z,100.00
2018-12-20T22:27:42.964Z,100.00
2018-12-20T22:30:11.605Z,100.00
2018-12-20T22:32:40.252Z,100.00
2018-12-20T22:35:08.800Z,100.00
2018-12-20T22:37:37.367Z,100.00
2018-12-20T22:40:07.171Z,100.00
2018-12-20T22:42:35.750Z,100.00
2018-12-20T22:45:05.275Z,100.00
2018-12-20T22:47:33.956Z,100.00
2018-12-20T22:50:02.994Z,100.00
2018-12-20T22:52:31.534Z,100.00
2018-12-20T22:55:00.112Z,100.00
2018-12-20T22:57:28.668Z,100.00
2018-12-20T22:59:58.006Z,100.00
2018-12-20T23:02:26.712Z,100.00
2018-12-20T23:04:55.337Z,100.00
2018-12-20T23:07:23.862Z,100.00
2018-12-20T23:09:52.494Z,100.00
2018-12-20T23:12:23.053Z,100.00
2018-12-20T23:14:51.634Z,100.00
2018-12-20T23:17:22.321Z,100.00
2018-12-20T23:19:50.815Z,100.00
2018-12-20T23:22:19.382Z,100.00
2018-12-20T23:24:47.939Z,100.00
2018-12-20T23:27:16.498Z,100.00
2018-12-20T23:29:45.070Z,100.00
2018-12-20T23:32:13.600Z,100.00
2018-12-20T23:34:42.205Z,100.00
2018-12-20T23:37:10.730Z,100.00
2018-12-20T23:39:39.257Z,100.00
2018-12-20T23:42:07.849Z,100.00
2018-12-20T23:44:36.392Z,100.00
2018-12-20T23:47:04.955Z,100.00
2018-12-20T23:49:33.686Z,100.00
2018-12-20T23:52:02.195Z,100.00
2018-12-20T23:54:30.745Z,100.00
2018-12-20T23:56:59.321Z,100.00
2018-12-20T23:59:27.977Z,100.00
